sensor_id;sensor_type;location;lat;lon;timestamp;P1;durP1;ratioP1;P2;durP2;ratioP2
12707;SDS011;6418;50.824;4.718;2023-02-02T00:01:20;22.53;;;5.67;;
12707;SDS011;6418;50.824;4.718;2023-02-02T00:03:48;22.50;;;5.63;;
12707;SDS011;6418;50.824;4.718;2023-02-02T00:06:15;20.20;;;5.10;;
12707;SDS011;6418;50.824;4.718;2023-02-02T00:08:42;20.80;;;5.70;;
12707;SDS011;6418;50.824;4.718;2023-02-02T00:11:12;21.20;;;5.40;;
12707;SDS011;6418;50.824;4.718;2023-02-02T00:13:49;21.37;;;5.60;;
12707;SDS011;6418;50.824;4.718;2023-02-02T00:16:20;22.10;;;5.47;;
12707;SDS011;6418;50.824;4.718;2023-02-02T00:19:07;20.73;;;5.40;;
12707;SDS011;6418;50.824;4.718;2023-02-02T00:21:40;23.13;;;5.13;;
12707;SDS011;6418;50.824;4.718;2023-02-02T00:24:07;19.53;;;5.67;;
12707;SDS011;6418;50.824;4.718;2023-02-02T00:26:35;16.67;;;5.47;;
12707;SDS011;6418;50.824;4.718;2023-02-02T00:29:05;24.93;;;5.30;;
12707;SDS011;6418;50.824;4.718;2023-02-02T00:31:36;18.60;;;5.27;;
12707;SDS011;6418;50.824;4.718;2023-02-02T00:34:04;22.17;;;5.77;;
12707;SDS011;6418;50.824;4.718;2023-02-02T00:36:31;20.30;;;5.40;;
12707;SDS011;6418;50.824;4.718;2023-02-02T00:38:58;19.27;;;5.27;;
12707;SDS011;6418;50.824;4.718;2023-02-02T00:41:24;22.77;;;5.93;;
12707;SDS011;6418;50.824;4.718;2023-02-02T00:43:51;27.53;;;5.90;;
12707;SDS011;6418;50.824;4.718;2023-02-02T00:46:34;20.87;;;5.43;;
12707;SDS011;6418;50.824;4.718;2023-02-02T00:49:04;24.70;;;5.83;;
12707;SDS011;6418;50.824;4.718;2023-02-02T00:51:33;18.87;;;5.07;;
12707;SDS011;6418;50.824;4.718;2023-02-02T00:54:02;21.70;;;5.13;;
12707;SDS011;6418;50.824;4.718;2023-02-02T00:56:30;22.80;;;5.27;;
12707;SDS011;6418;50.824;4.718;2023-02-02T00:58:56;26.97;;;5.70;;
12707;SDS011;6418;50.824;4.718;2023-02-02T01:01:23;22.90;;;6.07;;
12707;SDS011;6418;50.824;4.718;2023-02-02T01:03:52;23.13;;;5.47;;
12707;SDS011;6418;50.824;4.718;2023-02-02T01:06:21;20.47;;;5.57;;
12707;SDS011;6418;50.824;4.718;2023-02-02T01:08:48;27.53;;;5.90;;
12707;SDS011;6418;50.824;4.718;2023-02-02T01:11:16;20.17;;;5.27;;
12707;SDS011;6418;50.824;4.718;2023-02-02T01:13:44;22.30;;;5.83;;
12707;SDS011;6418;50.824;4.718;2023-02-02T01:16:10;20.93;;;5.67;;
12707;SDS011;6418;50.824;4.718;2023-02-02T01:18:37;22.87;;;5.30;;
12707;SDS011;6418;50.824;4.718;2023-02-02T01:21:06;21.90;;;5.73;;
12707;SDS011;6418;50.824;4.718;2023-02-02T01:23:36;21.67;;;5.20;;
12707;SDS011;6418;50.824;4.718;2023-02-02T01:26:04;25.13;;;5.60;;
12707;SDS011;6418;50.824;4.718;2023-02-02T01:28:32;18.70;;;5.23;;
12707;SDS011;6418;50.824;4.718;2023-02-02T01:31:04;19.00;;;5.60;;
12707;SDS011;6418;50.824;4.718;2023-02-02T01:33:36;23.77;;;6.13;;
12707;SDS011;6418;50.824;4.718;2023-02-02T01:36:04;22.47;;;5.40;;
12707;SDS011;6418;50.824;4.718;2023-02-02T01:38:37;17.73;;;5.23;;
12707;SDS011;6418;50.824;4.718;2023-02-02T01:41:05;17.93;;;4.97;;
12707;SDS011;6418;50.824;4.718;2023-02-02T01:46:21;22.27;;;6.00;;
12707;SDS011;6418;50.824;4.718;2023-02-02T01:49:01;19.77;;;5.30;;
12707;SDS011;6418;50.824;4.718;2023-02-02T01:51:35;24.40;;;5.53;;
12707;SDS011;6418;50.824;4.718;2023-02-02T01:54:07;18.17;;;5.10;;
12707;SDS011;6418;50.824;4.718;2023-02-02T01:56:38;22.60;;;5.60;;
12707;SDS011;6418;50.824;4.718;2023-02-02T01:59:08;26.27;;;5.97;;
12707;SDS011;6418;50.824;4.718;2023-02-02T02:01:37;21.27;;;5.40;;
12707;SDS011;6418;50.824;4.718;2023-02-02T02:04:04;20.50;;;5.53;;
12707;SDS011;6418;50.824;4.718;2023-02-02T02:06:31;22.60;;;5.80;;
12707;SDS011;6418;50.824;4.718;2023-02-02T02:09:01;23.00;;;5.60;;
12707;SDS011;6418;50.824;4.718;2023-02-02T02:11:29;17.00;;;5.50;;
12707;SDS011;6418;50.824;4.718;2023-02-02T02:13:59;18.87;;;5.63;;
12707;SDS011;6418;50.824;4.718;2023-02-02T02:16:48;19.50;;;5.47;;
12707;SDS011;6418;50.824;4.718;2023-02-02T02:26:21;21.80;;;5.67;;
12707;SDS011;6418;50.824;4.718;2023-02-02T02:29:09;19.33;;;5.57;;
12707;SDS011;6418;50.824;4.718;2023-02-02T02:35:01;20.43;;;5.67;;
12707;SDS011;6418;50.824;4.718;2023-02-02T02:37:32;19.97;;;5.57;;
12707;SDS011;6418;50.824;4.718;2023-02-02T02:40:10;24.37;;;5.87;;
12707;SDS011;6418;50.824;4.718;2023-02-02T02:42:46;21.27;;;5.20;;
12707;SDS011;6418;50.824;4.718;2023-02-02T02:45:17;17.73;;;5.03;;
12707;SDS011;6418;50.824;4.718;2023-02-02T02:47:46;19.50;;;5.07;;
12707;SDS011;6418;50.824;4.718;2023-02-02T02:50:14;19.80;;;5.13;;
12707;SDS011;6418;50.824;4.718;2023-02-02T02:52:42;20.20;;;5.33;;
12707;SDS011;6418;50.824;4.718;2023-02-02T02:55:12;19.93;;;5.37;;
12707;SDS011;6418;50.824;4.718;2023-02-02T02:57:43;16.73;;;5.10;;
12707;SDS011;6418;50.824;4.718;2023-02-02T03:00:20;19.37;;;5.53;;
12707;SDS011;6418;50.824;4.718;2023-02-02T03:03:07;22.90;;;5.80;;
12707;SDS011;6418;50.824;4.718;2023-02-02T03:05:47;24.67;;;5.50;;
12707;SDS011;6418;50.824;4.718;2023-02-02T03:08:23;21.70;;;5.07;;
12707;SDS011;6418;50.824;4.718;2023-02-02T03:10:57;21.17;;;5.47;;
12707;SDS011;6418;50.824;4.718;2023-02-02T03:13:28;16.43;;;4.63;;
12707;SDS011;6418;50.824;4.718;2023-02-02T03:15:56;22.63;;;5.47;;
12707;SDS011;6418;50.824;4.718;2023-02-02T03:18:25;18.27;;;4.83;;
12707;SDS011;6418;50.824;4.718;2023-02-02T03:20:54;19.00;;;5.33;;
12707;SDS011;6418;50.824;4.718;2023-02-02T03:23:21;18.50;;;5.30;;
12707;SDS011;6418;50.824;4.718;2023-02-02T03:25:48;15.83;;;4.80;;
12707;SDS011;6418;50.824;4.718;2023-02-02T03:28:17;20.63;;;5.33;;
12707;SDS011;6418;50.824;4.718;2023-02-02T03:30:45;21.70;;;5.43;;
12707;SDS011;6418;50.824;4.718;2023-02-02T03:33:15;21.20;;;5.20;;
12707;SDS011;6418;50.824;4.718;2023-02-02T03:35:45;16.60;;;5.03;;
12707;SDS011;6418;50.824;4.718;2023-02-02T03:38:11;22.33;;;5.47;;
12707;SDS011;6418;50.824;4.718;2023-02-02T03:40:38;19.43;;;5.30;;
12707;SDS011;6418;50.824;4.718;2023-02-02T03:43:05;20.13;;;4.90;;
12707;SDS011;6418;50.824;4.718;2023-02-02T03:45:33;20.60;;;5.47;;
12707;SDS011;6418;50.824;4.718;2023-02-02T03:48:02;22.00;;;5.27;;
12707;SDS011;6418;50.824;4.718;2023-02-02T03:50:35;14.77;;;5.00;;
12707;SDS011;6418;50.824;4.718;2023-02-02T03:53:03;19.03;;;5.17;;
12707;SDS011;6418;50.824;4.718;2023-02-02T03:55:33;22.30;;;5.40;;
12707;SDS011;6418;50.824;4.718;2023-02-02T03:58:00;19.10;;;5.33;;
12707;SDS011;6418;50.824;4.718;2023-02-02T04:00:27;18.50;;;5.00;;
12707;SDS011;6418;50.824;4.718;2023-02-02T04:02:53;23.50;;;5.30;;
12707;SDS011;6418;50.824;4.718;2023-02-02T04:05:20;22.10;;;5.77;;
12707;SDS011;6418;50.824;4.718;2023-02-02T04:07:47;25.27;;;5.43;;
12707;SDS011;6418;50.824;4.718;2023-02-02T04:10:16;18.70;;;5.20;;
12707;SDS011;6418;50.824;4.718;2023-02-02T04:12:43;20.37;;;5.10;;
12707;SDS011;6418;50.824;4.718;2023-02-02T04:15:12;19.50;;;5.07;;
12707;SDS011;6418;50.824;4.718;2023-02-02T04:17:39;18.17;;;5.10;;
12707;SDS011;6418;50.824;4.718;2023-02-02T04:20:07;16.10;;;4.97;;
12707;SDS011;6418;50.824;4.718;2023-02-02T04:22:34;22.13;;;5.63;;
12707;SDS011;6418;50.824;4.718;2023-02-02T04:25:01;23.73;;;5.40;;
12707;SDS011;6418;50.824;4.718;2023-02-02T04:27:30;20.00;;;4.87;;
12707;SDS011;6418;50.824;4.718;2023-02-02T04:29:58;19.50;;;4.87;;
12707;SDS011;6418;50.824;4.718;2023-02-02T04:32:25;15.37;;;4.63;;
12707;SDS011;6418;50.824;4.718;2023-02-02T04:34:51;18.47;;;5.47;;
12707;SDS011;6418;50.824;4.718;2023-02-02T04:37:18;20.13;;;4.77;;
12707;SDS011;6418;50.824;4.718;2023-02-02T04:39:47;20.17;;;4.83;;
12707;SDS011;6418;50.824;4.718;2023-02-02T04:42:14;17.10;;;4.70;;
12707;SDS011;6418;50.824;4.718;2023-02-02T04:44:43;18.27;;;4.53;;
12707;SDS011;6418;50.824;4.718;2023-02-02T04:47:10;18.40;;;4.67;;
12707;SDS011;6418;50.824;4.718;2023-02-02T04:49:37;16.53;;;5.07;;
12707;SDS011;6418;50.824;4.718;2023-02-02T04:52:05;17.77;;;4.97;;
12707;SDS011;6418;50.824;4.718;2023-02-02T04:54:32;21.23;;;5.13;;
12707;SDS011;6418;50.824;4.718;2023-02-02T04:56:59;17.47;;;4.43;;
12707;SDS011;6418;50.824;4.718;2023-02-02T04:59:27;20.93;;;5.13;;
12707;SDS011;6418;50.824;4.718;2023-02-02T05:01:57;17.77;;;4.73;;
12707;SDS011;6418;50.824;4.718;2023-02-02T05:04:25;17.63;;;5.10;;
12707;SDS011;6418;50.824;4.718;2023-02-02T05:06:52;20.37;;;4.80;;
12707;SDS011;6418;50.824;4.718;2023-02-02T05:09:19;16.17;;;4.80;;
12707;SDS011;6418;50.824;4.718;2023-02-02T05:11:46;18.23;;;4.77;;
12707;SDS011;6418;50.824;4.718;2023-02-02T05:14:13;21.87;;;4.83;;
12707;SDS011;6418;50.824;4.718;2023-02-02T05:16:51;20.00;;;4.67;;
12707;SDS011;6418;50.824;4.718;2023-02-02T05:19:19;19.30;;;5.00;;
12707;SDS011;6418;50.824;4.718;2023-02-02T05:21:48;21.73;;;5.30;;
12707;SDS011;6418;50.824;4.718;2023-02-02T05:24:15;16.53;;;4.70;;
12707;SDS011;6418;50.824;4.718;2023-02-02T05:26:45;18.30;;;4.60;;
12707;SDS011;6418;50.824;4.718;2023-02-02T05:29:12;19.17;;;5.03;;
12707;SDS011;6418;50.824;4.718;2023-02-02T05:31:39;17.37;;;4.87;;
12707;SDS011;6418;50.824;4.718;2023-02-02T05:34:08;19.73;;;5.03;;
12707;SDS011;6418;50.824;4.718;2023-02-02T05:36:36;19.13;;;4.77;;
12707;SDS011;6418;50.824;4.718;2023-02-02T05:39:07;19.70;;;5.13;;
12707;SDS011;6418;50.824;4.718;2023-02-02T05:41:36;18.73;;;4.60;;
12707;SDS011;6418;50.824;4.718;2023-02-02T05:44:03;19.63;;;4.93;;
12707;SDS011;6418;50.824;4.718;2023-02-02T05:46:30;16.83;;;4.70;;
12707;SDS011;6418;50.824;4.718;2023-02-02T05:48:57;18.83;;;5.10;;
12707;SDS011;6418;50.824;4.718;2023-02-02T05:51:25;18.10;;;4.87;;
12707;SDS011;6418;50.824;4.718;2023-02-02T05:53:57;19.17;;;5.33;;
12707;SDS011;6418;50.824;4.718;2023-02-02T05:56:24;19.23;;;5.13;;
12707;SDS011;6418;50.824;4.718;2023-02-02T05:58:51;17.93;;;5.20;;
12707;SDS011;6418;50.824;4.718;2023-02-02T06:01:19;17.70;;;5.07;;
12707;SDS011;6418;50.824;4.718;2023-02-02T06:03:55;19.53;;;5.50;;
12707;SDS011;6418;50.824;4.718;2023-02-02T06:06:22;18.80;;;4.87;;
12707;SDS011;6418;50.824;4.718;2023-02-02T06:08:49;16.77;;;5.10;;
12707;SDS011;6418;50.824;4.718;2023-02-02T06:11:17;17.03;;;4.50;;
12707;SDS011;6418;50.824;4.718;2023-02-02T06:13:47;18.87;;;5.57;;
12707;SDS011;6418;50.824;4.718;2023-02-02T06:16:13;23.37;;;5.07;;
12707;SDS011;6418;50.824;4.718;2023-02-02T06:18:40;18.40;;;4.90;;
12707;SDS011;6418;50.824;4.718;2023-02-02T06:21:08;22.77;;;5.23;;
12707;SDS011;6418;50.824;4.718;2023-02-02T06:23:35;20.77;;;4.93;;
12707;SDS011;6418;50.824;4.718;2023-02-02T06:26:09;19.23;;;4.73;;
12707;SDS011;6418;50.824;4.718;2023-02-02T06:28:37;20.03;;;5.90;;
12707;SDS011;6418;50.824;4.718;2023-02-02T06:31:04;20.90;;;5.47;;
12707;SDS011;6418;50.824;4.718;2023-02-02T06:33:33;23.70;;;5.83;;
12707;SDS011;6418;50.824;4.718;2023-02-02T06:36:00;17.57;;;5.37;;
12707;SDS011;6418;50.824;4.718;2023-02-02T06:38:33;24.07;;;5.70;;
12707;SDS011;6418;50.824;4.718;2023-02-02T06:41:03;22.60;;;5.47;;
12707;SDS011;6418;50.824;4.718;2023-02-02T06:43:31;17.43;;;5.23;;
12707;SDS011;6418;50.824;4.718;2023-02-02T06:45:59;22.80;;;5.60;;
12707;SDS011;6418;50.824;4.718;2023-02-02T06:48:26;24.10;;;6.00;;
12707;SDS011;6418;50.824;4.718;2023-02-02T06:50:54;20.10;;;5.80;;
12707;SDS011;6418;50.824;4.718;2023-02-02T06:53:23;22.50;;;5.57;;
12707;SDS011;6418;50.824;4.718;2023-02-02T06:56:05;20.03;;;5.77;;
12707;SDS011;6418;50.824;4.718;2023-02-02T06:58:36;22.93;;;5.80;;
12707;SDS011;6418;50.824;4.718;2023-02-02T07:01:14;22.63;;;5.70;;
12707;SDS011;6418;50.824;4.718;2023-02-02T07:03:40;23.40;;;5.13;;
12707;SDS011;6418;50.824;4.718;2023-02-02T07:06:14;20.43;;;5.77;;
12707;SDS011;6418;50.824;4.718;2023-02-02T07:08:43;21.47;;;5.53;;
12707;SDS011;6418;50.824;4.718;2023-02-02T07:11:10;18.93;;;5.37;;
12707;SDS011;6418;50.824;4.718;2023-02-02T07:13:37;22.90;;;6.07;;
12707;SDS011;6418;50.824;4.718;2023-02-02T07:16:07;20.33;;;6.10;;
12707;SDS011;6418;50.824;4.718;2023-02-02T07:18:35;25.37;;;5.70;;
12707;SDS011;6418;50.824;4.718;2023-02-02T07:21:05;23.20;;;5.53;;
12707;SDS011;6418;50.824;4.718;2023-02-02T07:23:32;19.97;;;5.50;;
12707;SDS011;6418;50.824;4.718;2023-02-02T07:26:00;18.97;;;5.33;;
12707;SDS011;6418;50.824;4.718;2023-02-02T07:28:28;19.07;;;5.37;;
12707;SDS011;6418;50.824;4.718;2023-02-02T07:30:55;20.10;;;5.70;;
12707;SDS011;6418;50.824;4.718;2023-02-02T07:33:22;20.70;;;6.00;;
12707;SDS011;6418;50.824;4.718;2023-02-02T07:35:50;20.50;;;5.93;;
12707;SDS011;6418;50.824;4.718;2023-02-02T07:38:18;26.17;;;6.83;;
12707;SDS011;6418;50.824;4.718;2023-02-02T07:40:44;26.20;;;6.00;;
12707;SDS011;6418;50.824;4.718;2023-02-02T07:43:12;22.23;;;5.93;;
12707;SDS011;6418;50.824;4.718;2023-02-02T07:45:39;18.10;;;5.37;;
12707;SDS011;6418;50.824;4.718;2023-02-02T07:48:06;17.17;;;5.90;;
12707;SDS011;6418;50.824;4.718;2023-02-02T07:50:35;21.87;;;6.20;;
12707;SDS011;6418;50.824;4.718;2023-02-02T07:53:03;19.03;;;6.27;;
12707;SDS011;6418;50.824;4.718;2023-02-02T07:55:30;15.30;;;5.37;;
12707;SDS011;6418;50.824;4.718;2023-02-02T07:57:57;17.37;;;5.60;;
12707;SDS011;6418;50.824;4.718;2023-02-02T08:00:27;18.93;;;5.53;;
12707;SDS011;6418;50.824;4.718;2023-02-02T08:02:54;23.03;;;6.27;;
12707;SDS011;6418;50.824;4.718;2023-02-02T08:05:22;18.20;;;5.60;;
12707;SDS011;6418;50.824;4.718;2023-02-02T08:07:49;17.27;;;5.27;;
12707;SDS011;6418;50.824;4.718;2023-02-02T08:10:17;19.50;;;5.40;;
12707;SDS011;6418;50.824;4.718;2023-02-02T08:12:47;20.90;;;4.97;;
12707;SDS011;6418;50.824;4.718;2023-02-02T08:15:16;21.43;;;5.43;;
12707;SDS011;6418;50.824;4.718;2023-02-02T08:17:45;21.10;;;5.50;;
12707;SDS011;6418;50.824;4.718;2023-02-02T08:20:14;21.33;;;5.33;;
12707;SDS011;6418;50.824;4.718;2023-02-02T08:22:41;17.23;;;5.27;;
12707;SDS011;6418;50.824;4.718;2023-02-02T08:25:09;22.97;;;5.63;;
12707;SDS011;6418;50.824;4.718;2023-02-02T08:27:42;20.43;;;5.10;;
12707;SDS011;6418;50.824;4.718;2023-02-02T08:30:12;14.10;;;5.10;;
12707;SDS011;6418;50.824;4.718;2023-02-02T08:32:39;18.57;;;4.70;;
12707;SDS011;6418;50.824;4.718;2023-02-02T08:35:06;19.47;;;5.30;;
12707;SDS011;6418;50.824;4.718;2023-02-02T08:37:37;18.87;;;5.07;;
12707;SDS011;6418;50.824;4.718;2023-02-02T08:40:05;17.80;;;5.20;;
12707;SDS011;6418;50.824;4.718;2023-02-02T08:42:33;15.70;;;4.77;;
12707;SDS011;6418;50.824;4.718;2023-02-02T08:45:02;21.37;;;5.70;;
12707;SDS011;6418;50.824;4.718;2023-02-02T08:47:29;15.47;;;4.67;;
12707;SDS011;6418;50.824;4.718;2023-02-02T08:49:56;20.37;;;5.30;;
12707;SDS011;6418;50.824;4.718;2023-02-02T08:52:23;16.30;;;4.93;;
12707;SDS011;6418;50.824;4.718;2023-02-02T08:54:50;17.67;;;4.67;;
12707;SDS011;6418;50.824;4.718;2023-02-02T08:57:17;20.53;;;5.10;;
12707;SDS011;6418;50.824;4.718;2023-02-02T08:59:44;22.13;;;5.43;;
12707;SDS011;6418;50.824;4.718;2023-02-02T09:02:12;17.23;;;4.80;;
12707;SDS011;6418;50.824;4.718;2023-02-02T09:04:39;19.67;;;5.10;;
12707;SDS011;6418;50.824;4.718;2023-02-02T09:07:09;17.23;;;5.07;;
12707;SDS011;6418;50.824;4.718;2023-02-02T09:09:36;16.93;;;4.83;;
12707;SDS011;6418;50.824;4.718;2023-02-02T09:12:03;14.27;;;4.53;;
12707;SDS011;6418;50.824;4.718;2023-02-02T09:14:30;16.93;;;4.90;;
12707;SDS011;6418;50.824;4.718;2023-02-02T09:16:57;17.87;;;4.60;;
12707;SDS011;6418;50.824;4.718;2023-02-02T09:19:25;17.67;;;4.97;;
12707;SDS011;6418;50.824;4.718;2023-02-02T09:21:52;14.03;;;4.60;;
12707;SDS011;6418;50.824;4.718;2023-02-02T09:24:19;18.43;;;4.77;;
12707;SDS011;6418;50.824;4.718;2023-02-02T09:26:46;14.77;;;4.70;;
12707;SDS011;6418;50.824;4.718;2023-02-02T09:29:13;19.87;;;4.90;;
12707;SDS011;6418;50.824;4.718;2023-02-02T09:31:43;14.43;;;4.63;;
12707;SDS011;6418;50.824;4.718;2023-02-02T09:34:11;14.97;;;4.30;;
12707;SDS011;6418;50.824;4.718;2023-02-02T09:36:41;16.60;;;4.60;;
12707;SDS011;6418;50.824;4.718;2023-02-02T09:39:09;17.90;;;4.80;;
12707;SDS011;6418;50.824;4.718;2023-02-02T09:41:50;16.13;;;5.07;;
12707;SDS011;6418;50.824;4.718;2023-02-02T09:44:57;11.73;;;4.83;;
12707;SDS011;6418;50.824;4.718;2023-02-02T09:50:20;17.83;;;5.13;;
12707;SDS011;6418;50.824;4.718;2023-02-02T09:53:07;15.03;;;4.70;;
12707;SDS011;6418;50.824;4.718;2023-02-02T09:55:42;14.77;;;4.80;;
12707;SDS011;6418;50.824;4.718;2023-02-02T09:58:12;15.53;;;4.73;;
12707;SDS011;6418;50.824;4.718;2023-02-02T10:00:44;15.57;;;4.40;;
12707;SDS011;6418;50.824;4.718;2023-02-02T10:03:17;13.40;;;4.30;;
12707;SDS011;6418;50.824;4.718;2023-02-02T10:05:49;16.67;;;4.60;;
12707;SDS011;6418;50.824;4.718;2023-02-02T10:08:24;12.80;;;4.30;;
12707;SDS011;6418;50.824;4.718;2023-02-02T10:11:02;20.97;;;4.90;;
12707;SDS011;6418;50.824;4.718;2023-02-02T10:13:38;15.47;;;4.53;;
12707;SDS011;6418;50.824;4.718;2023-02-02T10:16:14;15.07;;;4.40;;
12707;SDS011;6418;50.824;4.718;2023-02-02T10:18:44;14.77;;;4.23;;
12707;SDS011;6418;50.824;4.718;2023-02-02T10:21:17;14.10;;;4.13;;
12707;SDS011;6418;50.824;4.718;2023-02-02T10:23:53;17.70;;;4.37;;
12707;SDS011;6418;50.824;4.718;2023-02-02T10:26:22;13.00;;;4.40;;
12707;SDS011;6418;50.824;4.718;2023-02-02T10:29:00;11.40;;;4.00;;
12707;SDS011;6418;50.824;4.718;2023-02-02T10:31:37;14.53;;;4.20;;
12707;SDS011;6418;50.824;4.718;2023-02-02T10:34:12;14.83;;;4.47;;
12707;SDS011;6418;50.824;4.718;2023-02-02T10:36:51;12.77;;;4.20;;
12707;SDS011;6418;50.824;4.718;2023-02-02T10:39:29;12.67;;;4.20;;
12707;SDS011;6418;50.824;4.718;2023-02-02T10:42:08;14.50;;;4.37;;
12707;SDS011;6418;50.824;4.718;2023-02-02T10:44:44;13.93;;;4.23;;
12707;SDS011;6418;50.824;4.718;2023-02-02T10:47:16;16.13;;;4.27;;
12707;SDS011;6418;50.824;4.718;2023-02-02T10:49:49;13.73;;;3.97;;
12707;SDS011;6418;50.824;4.718;2023-02-02T10:52:27;12.37;;;4.13;;
12707;SDS011;6418;50.824;4.718;2023-02-02T10:54:59;16.93;;;4.80;;
12707;SDS011;6418;50.824;4.718;2023-02-02T11:00:20;16.63;;;4.70;;
12707;SDS011;6418;50.824;4.718;2023-02-02T11:02:50;16.97;;;4.53;;
12707;SDS011;6418;50.824;4.718;2023-02-02T11:05:19;13.83;;;4.10;;
12707;SDS011;6418;50.824;4.718;2023-02-02T11:08:10;15.10;;;4.50;;
12707;SDS011;6418;50.824;4.718;2023-02-02T11:10:41;16.93;;;4.97;;
12707;SDS011;6418;50.824;4.718;2023-02-02T11:13:10;19.80;;;4.60;;
12707;SDS011;6418;50.824;4.718;2023-02-02T11:15:41;16.97;;;4.87;;
12707;SDS011;6418;50.824;4.718;2023-02-02T11:18:18;14.60;;;4.23;;
12707;SDS011;6418;50.824;4.718;2023-02-02T11:20:55;15.10;;;4.23;;
12707;SDS011;6418;50.824;4.718;2023-02-02T11:23:22;14.70;;;4.43;;
12707;SDS011;6418;50.824;4.718;2023-02-02T11:25:57;16.93;;;4.73;;
12707;SDS011;6418;50.824;4.718;2023-02-02T11:28:29;14.47;;;4.87;;
12707;SDS011;6418;50.824;4.718;2023-02-02T11:30:59;12.97;;;4.30;;
12707;SDS011;6418;50.824;4.718;2023-02-02T11:33:27;19.03;;;4.53;;
12707;SDS011;6418;50.824;4.718;2023-02-02T11:35:57;15.27;;;4.60;;
12707;SDS011;6418;50.824;4.718;2023-02-02T11:38:26;14.67;;;4.67;;
12707;SDS011;6418;50.824;4.718;2023-02-02T11:40:56;14.13;;;4.27;;
12707;SDS011;6418;50.824;4.718;2023-02-02T11:43:28;13.10;;;3.80;;
12707;SDS011;6418;50.824;4.718;2023-02-02T11:45:57;15.50;;;4.43;;
12707;SDS011;6418;50.824;4.718;2023-02-02T11:48:29;14.43;;;4.30;;
12707;SDS011;6418;50.824;4.718;2023-02-02T11:51:00;12.77;;;4.47;;
12707;SDS011;6418;50.824;4.718;2023-02-02T11:53:29;13.23;;;4.40;;
12707;SDS011;6418;50.824;4.718;2023-02-02T11:56:00;14.20;;;4.20;;
12707;SDS011;6418;50.824;4.718;2023-02-02T11:58:41;15.87;;;4.27;;
12707;SDS011;6418;50.824;4.718;2023-02-02T12:01:15;14.27;;;4.07;;
12707;SDS011;6418;50.824;4.718;2023-02-02T12:03:52;12.70;;;4.57;;
12707;SDS011;6418;50.824;4.718;2023-02-02T12:06:20;13.20;;;4.37;;
12707;SDS011;6418;50.824;4.718;2023-02-02T12:08:49;16.07;;;4.50;;
12707;SDS011;6418;50.824;4.718;2023-02-02T12:11:26;13.00;;;4.20;;
12707;SDS011;6418;50.824;4.718;2023-02-02T12:14:04;16.83;;;4.67;;
12707;SDS011;6418;50.824;4.718;2023-02-02T12:16:44;15.40;;;4.00;;
12707;SDS011;6418;50.824;4.718;2023-02-02T12:19:24;19.23;;;4.93;;
12707;SDS011;6418;50.824;4.718;2023-02-02T12:22:06;14.00;;;4.33;;
12707;SDS011;6418;50.824;4.718;2023-02-02T12:24:46;13.30;;;4.60;;
12707;SDS011;6418;50.824;4.718;2023-02-02T12:27:25;15.60;;;4.50;;
12707;SDS011;6418;50.824;4.718;2023-02-02T12:32:57;15.40;;;4.60;;
12707;SDS011;6418;50.824;4.718;2023-02-02T12:35:37;13.37;;;4.20;;
12707;SDS011;6418;50.824;4.718;2023-02-02T12:38:30;15.63;;;4.50;;
12707;SDS011;6418;50.824;4.718;2023-02-02T12:41:23;14.77;;;4.57;;
12707;SDS011;6418;50.824;4.718;2023-02-02T12:44:03;15.80;;;4.30;;
12707;SDS011;6418;50.824;4.718;2023-02-02T12:46:40;12.53;;;4.17;;
12707;SDS011;6418;50.824;4.718;2023-02-02T12:49:25;12.60;;;4.37;;
12707;SDS011;6418;50.824;4.718;2023-02-02T12:52:06;14.70;;;4.00;;
12707;SDS011;6418;50.824;4.718;2023-02-02T12:54:48;14.60;;;4.43;;
12707;SDS011;6418;50.824;4.718;2023-02-02T12:57:28;10.90;;;3.97;;
12707;SDS011;6418;50.824;4.718;2023-02-02T13:00:10;16.20;;;5.60;;
12707;SDS011;6418;50.824;4.718;2023-02-02T13:03:00;13.03;;;4.43;;
12707;SDS011;6418;50.824;4.718;2023-02-02T13:05:38;11.83;;;4.07;;
12707;SDS011;6418;50.824;4.718;2023-02-02T13:08:19;12.80;;;4.20;;
12707;SDS011;6418;50.824;4.718;2023-02-02T13:10:51;12.67;;;4.30;;
12707;SDS011;6418;50.824;4.718;2023-02-02T13:13:21;12.40;;;4.20;;
12707;SDS011;6418;50.824;4.718;2023-02-02T13:15:53;11.47;;;4.20;;
12707;SDS011;6418;50.824;4.718;2023-02-02T13:18:25;12.37;;;4.00;;
12707;SDS011;6418;50.824;4.718;2023-02-02T13:20:55;11.13;;;3.90;;
12707;SDS011;6418;50.824;4.718;2023-02-02T13:23:27;12.87;;;4.13;;
12707;SDS011;6418;50.824;4.718;2023-02-02T13:26:00;13.07;;;4.30;;
12707;SDS011;6418;50.824;4.718;2023-02-02T13:28:31;11.30;;;3.80;;
12707;SDS011;6418;50.824;4.718;2023-02-02T13:31:06;11.00;;;4.00;;
12707;SDS011;6418;50.824;4.718;2023-02-02T13:33:38;13.93;;;4.40;;
12707;SDS011;6418;50.824;4.718;2023-02-02T13:36:09;10.57;;;4.03;;
12707;SDS011;6418;50.824;4.718;2023-02-02T13:38:43;12.17;;;4.43;;
12707;SDS011;6418;50.824;4.718;2023-02-02T13:41:11;11.37;;;4.60;;
12707;SDS011;6418;50.824;4.718;2023-02-02T13:43:42;11.43;;;4.30;;
12707;SDS011;6418;50.824;4.718;2023-02-02T13:46:21;8.57;;;4.10;;
12707;SDS011;6418;50.824;4.718;2023-02-02T13:48:59;10.90;;;3.83;;
12707;SDS011;6418;50.824;4.718;2023-02-02T13:51:39;9.83;;;4.07;;
12707;SDS011;6418;50.824;4.718;2023-02-02T13:54:21;12.83;;;4.03;;
12707;SDS011;6418;50.824;4.718;2023-02-02T13:57:33;11.50;;;3.97;;
12707;SDS011;6418;50.824;4.718;2023-02-02T14:00:24;10.53;;;4.00;;
12707;SDS011;6418;50.824;4.718;2023-02-02T14:02:57;10.90;;;4.40;;
12707;SDS011;6418;50.824;4.718;2023-02-02T14:05:29;13.37;;;4.30;;
12707;SDS011;6418;50.824;4.718;2023-02-02T14:07:59;14.17;;;5.00;;
12707;SDS011;6418;50.824;4.718;2023-02-02T14:10:31;13.17;;;3.87;;
12707;SDS011;6418;50.824;4.718;2023-02-02T14:13:09;14.07;;;4.10;;
12707;SDS011;6418;50.824;4.718;2023-02-02T14:16:02;11.40;;;3.87;;
12707;SDS011;6418;50.824;4.718;2023-02-02T14:18:51;10.13;;;4.00;;
12707;SDS011;6418;50.824;4.718;2023-02-02T14:24:38;13.97;;;4.13;;
12707;SDS011;6418;50.824;4.718;2023-02-02T14:30:31;10.40;;;3.53;;
12707;SDS011;6418;50.824;4.718;2023-02-02T14:36:13;11.37;;;3.60;;
12707;SDS011;6418;50.824;4.718;2023-02-02T14:39:00;13.40;;;3.90;;
12707;SDS011;6418;50.824;4.718;2023-02-02T14:41:36;11.23;;;3.83;;
12707;SDS011;6418;50.824;4.718;2023-02-02T14:47:44;9.73;;;3.37;;
12707;SDS011;6418;50.824;4.718;2023-02-02T14:50:14;12.80;;;4.17;;
12707;SDS011;6418;50.824;4.718;2023-02-02T14:52:44;8.97;;;3.80;;
12707;SDS011;6418;50.824;4.718;2023-02-02T14:55:24;11.80;;;3.80;;
12707;SDS011;6418;50.824;4.718;2023-02-02T14:57:56;12.20;;;4.17;;
12707;SDS011;6418;50.824;4.718;2023-02-02T15:00:26;10.10;;;3.90;;
12707;SDS011;6418;50.824;4.718;2023-02-02T15:02:58;13.10;;;4.27;;
12707;SDS011;6418;50.824;4.718;2023-02-02T15:06:03;12.00;;;4.00;;
12707;SDS011;6418;50.824;4.718;2023-02-02T15:08:34;10.17;;;3.50;;
12707;SDS011;6418;50.824;4.718;2023-02-02T15:11:06;16.53;;;5.33;;
12707;SDS011;6418;50.824;4.718;2023-02-02T15:14:05;11.30;;;4.20;;
12707;SDS011;6418;50.824;4.718;2023-02-02T15:16:39;11.70;;;4.17;;
12707;SDS011;6418;50.824;4.718;2023-02-02T15:19:11;10.30;;;4.20;;
12707;SDS011;6418;50.824;4.718;2023-02-02T15:21:44;11.13;;;4.07;;
12707;SDS011;6418;50.824;4.718;2023-02-02T15:24:18;10.17;;;4.30;;
12707;SDS011;6418;50.824;4.718;2023-02-02T15:26:49;9.03;;;3.87;;
12707;SDS011;6418;50.824;4.718;2023-02-02T15:29:20;12.67;;;4.23;;
12707;SDS011;6418;50.824;4.718;2023-02-02T15:31:57;10.20;;;4.20;;
12707;SDS011;6418;50.824;4.718;2023-02-02T15:34:29;13.70;;;4.77;;
12707;SDS011;6418;50.824;4.718;2023-02-02T15:37:04;11.67;;;4.60;;
12707;SDS011;6418;50.824;4.718;2023-02-02T15:39:35;13.50;;;4.70;;
12707;SDS011;6418;50.824;4.718;2023-02-02T15:42:05;11.87;;;4.63;;
12707;SDS011;6418;50.824;4.718;2023-02-02T15:44:57;9.37;;;4.67;;
12707;SDS011;6418;50.824;4.718;2023-02-02T15:47:28;11.23;;;4.53;;
12707;SDS011;6418;50.824;4.718;2023-02-02T15:49:58;15.43;;;5.00;;